sensor_id;sensor_type;location;lat;lon;timestamp;P1;durP1;ratioP1;P2;durP2;ratioP2
33836;SDS011;20140;49.356;8.812;2023-06-10T00:00:52;7.47;;;6.77;;
33836;SDS011;20140;49.356;8.812;2023-06-10T00:03:18;7.97;;;7.17;;
33836;SDS011;20140;49.356;8.812;2023-06-10T00:05:44;8.32;;;7.10;;
33836;SDS011;20140;49.356;8.812;2023-06-10T00:08:09;7.35;;;6.65;;
33836;SDS011;20140;49.356;8.812;2023-06-10T00:10:36;7.57;;;6.88;;
33836;SDS011;20140;49.356;8.812;2023-06-10T00:13:04;8.35;;;7.07;;
33836;SDS011;20140;49.356;8.812;2023-06-10T00:15:30;7.40;;;6.70;;
33836;SDS011;20140;49.356;8.812;2023-06-10T00:17:56;11.63;;;8.00;;
33836;SDS011;20140;49.356;8.812;2023-06-10T00:20:22;9.73;;;7.63;;
33836;SDS011;20140;49.356;8.812;2023-06-10T00:22:51;7.57;;;6.97;;
33836;SDS011;20140;49.356;8.812;2023-06-10T00:25:17;8.07;;;7.30;;
33836;SDS011;20140;49.356;8.812;2023-06-10T00:27:43;7.38;;;6.53;;
33836;SDS011;20140;49.356;8.812;2023-06-10T00:30:08;7.82;;;7.05;;
33836;SDS011;20140;49.356;8.812;2023-06-10T00:32:35;7.68;;;6.90;;
33836;SDS011;20140;49.356;8.812;2023-06-10T00:35:01;7.78;;;7.10;;
33836;SDS011;20140;49.356;8.812;2023-06-10T00:37:28;8.43;;;6.82;;
33836;SDS011;20140;49.356;8.812;2023-06-10T00:39:54;7.05;;;6.30;;
33836;SDS011;20140;49.356;8.812;2023-06-10T00:42:19;7.10;;;6.40;;
33836;SDS011;20140;49.356;8.812;2023-06-10T00:44:47;7.72;;;6.53;;
33836;SDS011;20140;49.356;8.812;2023-06-10T00:47:12;6.10;;;5.38;;
33836;SDS011;20140;49.356;8.812;2023-06-10T00:49:38;6.55;;;5.95;;
33836;SDS011;20140;49.356;8.812;2023-06-10T00:52:04;8.75;;;6.93;;
33836;SDS011;20140;49.356;8.812;2023-06-10T00:54:32;7.25;;;6.55;;
33836;SDS011;20140;49.356;8.812;2023-06-10T00:57:00;6.80;;;6.10;;
33836;SDS011;20140;49.356;8.812;2023-06-10T00:59:28;7.43;;;6.50;;
33836;SDS011;20140;49.356;8.812;2023-06-10T01:01:54;6.60;;;5.90;;
33836;SDS011;20140;49.356;8.812;2023-06-10T01:04:21;6.88;;;6.18;;
33836;SDS011;20140;49.356;8.812;2023-06-10T01:12:39;7.03;;;6.32;;
33836;SDS011;20140;49.356;8.812;2023-06-10T01:15:14;7.10;;;6.10;;
33836;SDS011;20140;49.356;8.812;2023-06-10T01:17:56;6.82;;;5.60;;
33836;SDS011;20140;49.356;8.812;2023-06-10T01:20:24;6.97;;;6.27;;
33836;SDS011;20140;49.356;8.812;2023-06-10T01:22:51;7.47;;;6.32;;
33836;SDS011;20140;49.356;8.812;2023-06-10T01:25:19;6.20;;;5.35;;
33836;SDS011;20140;49.356;8.812;2023-06-10T01:27:45;7.30;;;5.70;;
33836;SDS011;20140;49.356;8.812;2023-06-10T01:30:15;6.40;;;5.60;;
33836;SDS011;20140;49.356;8.812;2023-06-10T01:32:43;6.55;;;5.70;;
33836;SDS011;20140;49.356;8.812;2023-06-10T01:35:13;6.40;;;5.47;;
33836;SDS011;20140;49.356;8.812;2023-06-10T01:37:39;6.68;;;6.07;;
33836;SDS011;20140;49.356;8.812;2023-06-10T01:40:07;6.57;;;5.93;;
33836;SDS011;20140;49.356;8.812;2023-06-10T01:42:34;7.28;;;6.57;;
33836;SDS011;20140;49.356;8.812;2023-06-10T01:45:00;7.50;;;6.07;;
33836;SDS011;20140;49.356;8.812;2023-06-10T01:47:26;6.10;;;5.57;;
33836;SDS011;20140;49.356;8.812;2023-06-10T01:49:52;6.85;;;5.65;;
33836;SDS011;20140;49.356;8.812;2023-06-10T01:52:17;6.63;;;6.00;;
33836;SDS011;20140;49.356;8.812;2023-06-10T01:54:43;6.03;;;5.43;;
33836;SDS011;20140;49.356;8.812;2023-06-10T01:57:08;6.20;;;5.33;;
33836;SDS011;20140;49.356;8.812;2023-06-10T01:59:34;6.35;;;5.85;;
33836;SDS011;20140;49.356;8.812;2023-06-10T02:02:01;6.25;;;5.65;;
33836;SDS011;20140;49.356;8.812;2023-06-10T02:04:27;6.63;;;5.88;;
33836;SDS011;20140;49.356;8.812;2023-06-10T02:06:52;6.53;;;5.93;;
33836;SDS011;20140;49.356;8.812;2023-06-10T02:09:18;7.68;;;6.00;;
33836;SDS011;20140;49.356;8.812;2023-06-10T02:11:43;6.03;;;5.43;;
33836;SDS011;20140;49.356;8.812;2023-06-10T02:14:09;8.77;;;6.13;;
33836;SDS011;20140;49.356;8.812;2023-06-10T02:16:35;6.70;;;6.10;;
33836;SDS011;20140;49.356;8.812;2023-06-10T02:19:00;6.33;;;5.73;;
33836;SDS011;20140;49.356;8.812;2023-06-10T02:21:25;6.87;;;6.17;;
33836;SDS011;20140;49.356;8.812;2023-06-10T02:23:51;6.57;;;5.97;;
33836;SDS011;20140;49.356;8.812;2023-06-10T02:26:16;6.47;;;5.87;;
33836;SDS011;20140;49.356;8.812;2023-06-10T02:28:42;6.03;;;5.43;;
33836;SDS011;20140;49.356;8.812;2023-06-10T02:31:08;6.43;;;5.47;;
33836;SDS011;20140;49.356;8.812;2023-06-10T02:33:34;6.47;;;5.88;;
33836;SDS011;20140;49.356;8.812;2023-06-10T02:35:59;8.00;;;6.57;;
33836;SDS011;20140;49.356;8.812;2023-06-10T02:38:25;7.10;;;6.40;;
33836;SDS011;20140;49.356;8.812;2023-06-10T02:40:50;7.57;;;5.90;;
33836;SDS011;20140;49.356;8.812;2023-06-10T02:43:16;6.97;;;6.20;;
33836;SDS011;20140;49.356;8.812;2023-06-10T02:45:41;7.88;;;6.47;;
33836;SDS011;20140;49.356;8.812;2023-06-10T02:48:07;7.77;;;6.00;;
33836;SDS011;20140;49.356;8.812;2023-06-10T02:50:32;7.63;;;6.40;;
33836;SDS011;20140;49.356;8.812;2023-06-10T02:52:58;6.90;;;6.20;;
33836;SDS011;20140;49.356;8.812;2023-06-10T02:55:23;7.20;;;6.07;;
33836;SDS011;20140;49.356;8.812;2023-06-10T02:57:51;7.00;;;6.32;;
33836;SDS011;20140;49.356;8.812;2023-06-10T03:00:17;6.60;;;5.90;;
33836;SDS011;20140;49.356;8.812;2023-06-10T03:02:45;6.93;;;6.22;;
33836;SDS011;20140;49.356;8.812;2023-06-10T03:05:11;9.38;;;7.35;;
33836;SDS011;20140;49.356;8.812;2023-06-10T03:07:38;7.28;;;6.45;;
33836;SDS011;20140;49.356;8.812;2023-06-10T03:10:04;7.70;;;6.00;;
33836;SDS011;20140;49.356;8.812;2023-06-10T03:12:31;7.50;;;6.55;;
33836;SDS011;20140;49.356;8.812;2023-06-10T03:14:56;8.27;;;7.23;;
33836;SDS011;20140;49.356;8.812;2023-06-10T03:17:22;6.97;;;6.23;;
33836;SDS011;20140;49.356;8.812;2023-06-10T03:19:47;7.57;;;6.68;;
33836;SDS011;20140;49.356;8.812;2023-06-10T03:22:14;7.00;;;5.97;;
33836;SDS011;20140;49.356;8.812;2023-06-10T03:24:41;7.60;;;6.32;;
33836;SDS011;20140;49.356;8.812;2023-06-10T03:27:08;7.18;;;6.47;;
33836;SDS011;20140;49.356;8.812;2023-06-10T03:29:35;6.80;;;6.20;;
33836;SDS011;20140;49.356;8.812;2023-06-10T03:32:04;7.88;;;7.20;;
33836;SDS011;20140;49.356;8.812;2023-06-10T03:34:30;8.50;;;7.60;;
33836;SDS011;20140;49.356;8.812;2023-06-10T03:36:56;8.87;;;7.10;;
33836;SDS011;20140;49.356;8.812;2023-06-10T03:39:22;7.43;;;6.72;;
33836;SDS011;20140;49.356;8.812;2023-06-10T03:41:48;8.33;;;6.83;;
33836;SDS011;20140;49.356;8.812;2023-06-10T03:44:14;7.82;;;6.57;;
33836;SDS011;20140;49.356;8.812;2023-06-10T03:46:40;8.77;;;7.50;;
33836;SDS011;20140;49.356;8.812;2023-06-10T03:49:05;7.73;;;6.93;;
33836;SDS011;20140;49.356;8.812;2023-06-10T03:51:31;7.77;;;6.97;;
33836;SDS011;20140;49.356;8.812;2023-06-10T03:53:57;8.18;;;7.38;;
33836;SDS011;20140;49.356;8.812;2023-06-10T03:56:22;7.57;;;6.87;;
33836;SDS011;20140;49.356;8.812;2023-06-10T03:58:48;7.20;;;6.33;;
33836;SDS011;20140;49.356;8.812;2023-06-10T04:01:13;7.32;;;6.63;;
33836;SDS011;20140;49.356;8.812;2023-06-10T04:03:39;8.90;;;6.97;;
33836;SDS011;20140;49.356;8.812;2023-06-10T04:06:06;8.20;;;7.40;;
33836;SDS011;20140;49.356;8.812;2023-06-10T04:08:32;8.30;;;7.50;;
33836;SDS011;20140;49.356;8.812;2023-06-10T04:10:58;10.18;;;6.88;;
33836;SDS011;20140;49.356;8.812;2023-06-10T04:13:24;8.18;;;6.90;;
33836;SDS011;20140;49.356;8.812;2023-06-10T04:15:49;8.70;;;7.57;;
33836;SDS011;20140;49.356;8.812;2023-06-10T04:18:15;7.68;;;6.90;;
33836;SDS011;20140;49.356;8.812;2023-06-10T04:20:41;9.93;;;7.38;;
33836;SDS011;20140;49.356;8.812;2023-06-10T04:23:07;8.47;;;7.43;;
33836;SDS011;20140;49.356;8.812;2023-06-10T04:25:32;7.97;;;6.73;;
33836;SDS011;20140;49.356;8.812;2023-06-10T04:27:58;7.88;;;7.05;;
33836;SDS011;20140;49.356;8.812;2023-06-10T04:30:23;8.82;;;6.80;;
33836;SDS011;20140;49.356;8.812;2023-06-10T04:32:49;8.87;;;6.87;;
33836;SDS011;20140;49.356;8.812;2023-06-10T04:35:15;8.27;;;7.47;;
33836;SDS011;20140;49.356;8.812;2023-06-10T04:37:40;7.47;;;6.78;;
33836;SDS011;20140;49.356;8.812;2023-06-10T04:40:07;9.05;;;8.00;;
33836;SDS011;20140;49.356;8.812;2023-06-10T04:42:33;8.40;;;7.38;;
33836;SDS011;20140;49.356;8.812;2023-06-10T04:44:59;10.02;;;7.45;;
33836;SDS011;20140;49.356;8.812;2023-06-10T04:47:25;7.70;;;6.97;;
33836;SDS011;20140;49.356;8.812;2023-06-10T04:49:51;10.00;;;7.50;;
33836;SDS011;20140;49.356;8.812;2023-06-10T04:52:17;8.57;;;7.77;;
33836;SDS011;20140;49.356;8.812;2023-06-10T04:54:42;8.32;;;7.50;;
33836;SDS011;20140;49.356;8.812;2023-06-10T04:57:08;9.57;;;7.03;;
33836;SDS011;20140;49.356;8.812;2023-06-10T04:59:34;8.13;;;7.18;;
33836;SDS011;20140;49.356;8.812;2023-06-10T05:02:06;8.05;;;7.25;;
33836;SDS011;20140;49.356;8.812;2023-06-10T05:04:31;7.88;;;6.68;;
33836;SDS011;20140;49.356;8.812;2023-06-10T05:06:57;8.63;;;7.63;;
33836;SDS011;20140;49.356;8.812;2023-06-10T05:09:22;9.30;;;7.40;;
33836;SDS011;20140;49.356;8.812;2023-06-10T05:11:48;8.15;;;6.82;;
33836;SDS011;20140;49.356;8.812;2023-06-10T05:14:13;7.80;;;7.00;;
33836;SDS011;20140;49.356;8.812;2023-06-10T05:16:41;8.93;;;8.02;;
33836;SDS011;20140;49.356;8.812;2023-06-10T05:19:08;8.63;;;6.90;;
33836;SDS011;20140;49.356;8.812;2023-06-10T05:21:33;7.65;;;6.95;;
33836;SDS011;20140;49.356;8.812;2023-06-10T05:23:59;8.77;;;7.95;;
33836;SDS011;20140;49.356;8.812;2023-06-10T05:26:24;8.63;;;7.73;;
33836;SDS011;20140;49.356;8.812;2023-06-10T05:28:50;9.75;;;6.75;;
33836;SDS011;20140;49.356;8.812;2023-06-10T05:31:16;8.50;;;7.35;;
33836;SDS011;20140;49.356;8.812;2023-06-10T05:33:44;8.97;;;7.70;;
33836;SDS011;20140;49.356;8.812;2023-06-10T05:36:10;9.90;;;7.73;;
33836;SDS011;20140;49.356;8.812;2023-06-10T05:38:35;7.70;;;6.72;;
33836;SDS011;20140;49.356;8.812;2023-06-10T05:41:01;7.70;;;7.00;;
33836;SDS011;20140;49.356;8.812;2023-06-10T05:43:27;16.35;;;8.23;;
33836;SDS011;20140;49.356;8.812;2023-06-10T05:45:52;7.70;;;6.38;;
33836;SDS011;20140;49.356;8.812;2023-06-10T05:48:18;9.40;;;7.10;;
33836;SDS011;20140;49.356;8.812;2023-06-10T05:50:44;10.05;;;6.97;;
33836;SDS011;20140;49.356;8.812;2023-06-10T05:53:13;11.10;;;7.85;;
33836;SDS011;20140;49.356;8.812;2023-06-10T05:55:45;8.27;;;7.10;;
33836;SDS011;20140;49.356;8.812;2023-06-10T05:58:11;6.88;;;6.28;;
33836;SDS011;20140;49.356;8.812;2023-06-10T06:00:38;7.28;;;6.57;;
33836;SDS011;20140;49.356;8.812;2023-06-10T06:03:05;7.90;;;7.10;;
33836;SDS011;20140;49.356;8.812;2023-06-10T06:05:34;7.03;;;6.32;;
33836;SDS011;20140;49.356;8.812;2023-06-10T06:08:02;7.28;;;6.53;;
33836;SDS011;20140;49.356;8.812;2023-06-10T06:10:31;7.80;;;7.10;;
33836;SDS011;20140;49.356;8.812;2023-06-10T06:12:57;7.07;;;6.32;;
33836;SDS011;20140;49.356;8.812;2023-06-10T06:15:23;7.73;;;7.00;;
33836;SDS011;20140;49.356;8.812;2023-06-10T06:17:48;8.20;;;7.32;;
33836;SDS011;20140;49.356;8.812;2023-06-10T06:20:14;7.40;;;6.70;;
33836;SDS011;20140;49.356;8.812;2023-06-10T06:22:39;7.13;;;6.43;;
33836;SDS011;20140;49.356;8.812;2023-06-10T06:25:05;7.00;;;6.25;;
33836;SDS011;20140;49.356;8.812;2023-06-10T06:27:31;7.63;;;7.03;;
33836;SDS011;20140;49.356;8.812;2023-06-10T06:29:57;7.40;;;6.67;;
33836;SDS011;20140;49.356;8.812;2023-06-10T06:32:22;7.45;;;6.20;;
33836;SDS011;20140;49.356;8.812;2023-06-10T06:34:49;7.57;;;6.38;;
33836;SDS011;20140;49.356;8.812;2023-06-10T06:37:21;6.20;;;5.63;;
33836;SDS011;20140;49.356;8.812;2023-06-10T06:39:48;7.22;;;6.07;;
33836;SDS011;20140;49.356;8.812;2023-06-10T06:42:17;7.37;;;6.67;;
33836;SDS011;20140;49.356;8.812;2023-06-10T06:44:43;9.83;;;7.80;;
33836;SDS011;20140;49.356;8.812;2023-06-10T06:47:08;7.82;;;6.20;;
33836;SDS011;20140;49.356;8.812;2023-06-10T06:49:34;6.20;;;5.20;;
33836;SDS011;20140;49.356;8.812;2023-06-10T06:52:00;6.05;;;5.55;;
33836;SDS011;20140;49.356;8.812;2023-06-10T06:54:26;6.37;;;5.77;;
33836;SDS011;20140;49.356;8.812;2023-06-10T06:56:52;6.00;;;5.45;;
33836;SDS011;20140;49.356;8.812;2023-06-10T06:59:17;6.37;;;5.77;;
33836;SDS011;20140;49.356;8.812;2023-06-10T07:01:44;6.80;;;6.20;;
33836;SDS011;20140;49.356;8.812;2023-06-10T07:04:10;6.70;;;5.25;;
33836;SDS011;20140;49.356;8.812;2023-06-10T07:06:36;6.90;;;6.20;;
33836;SDS011;20140;49.356;8.812;2023-06-10T07:09:03;7.70;;;6.57;;
33836;SDS011;20140;49.356;8.812;2023-06-10T07:11:29;8.02;;;6.47;;
33836;SDS011;20140;49.356;8.812;2023-06-10T07:13:55;7.80;;;6.00;;
33836;SDS011;20140;49.356;8.812;2023-06-10T07:16:21;6.40;;;5.75;;
33836;SDS011;20140;49.356;8.812;2023-06-10T07:18:46;5.80;;;5.13;;
33836;SDS011;20140;49.356;8.812;2023-06-10T07:21:12;7.00;;;6.30;;
33836;SDS011;20140;49.356;8.812;2023-06-10T07:23:37;7.07;;;6.23;;
33836;SDS011;20140;49.356;8.812;2023-06-10T07:26:06;6.90;;;6.30;;
33836;SDS011;20140;49.356;8.812;2023-06-10T07:28:32;6.65;;;5.72;;
33836;SDS011;20140;49.356;8.812;2023-06-10T07:30:58;7.30;;;6.37;;
33836;SDS011;20140;49.356;8.812;2023-06-10T07:33:23;6.45;;;5.45;;
33836;SDS011;20140;49.356;8.812;2023-06-10T07:35:49;6.13;;;5.50;;
33836;SDS011;20140;49.356;8.812;2023-06-10T07:38:14;6.75;;;6.00;;
33836;SDS011;20140;49.356;8.812;2023-06-10T07:40:40;7.13;;;5.87;;
33836;SDS011;20140;49.356;8.812;2023-06-10T07:43:05;7.60;;;6.15;;
33836;SDS011;20140;49.356;8.812;2023-06-10T07:45:31;7.17;;;6.17;;
33836;SDS011;20140;49.356;8.812;2023-06-10T07:47:56;8.23;;;5.82;;
33836;SDS011;20140;49.356;8.812;2023-06-10T07:50:22;9.77;;;6.33;;
33836;SDS011;20140;49.356;8.812;2023-06-10T07:52:48;6.70;;;6.10;;
33836;SDS011;20140;49.356;8.812;2023-06-10T07:55:13;6.33;;;5.40;;
33836;SDS011;20140;49.356;8.812;2023-06-10T07:57:39;5.97;;;5.40;;
33836;SDS011;20140;49.356;8.812;2023-06-10T08:00:05;6.40;;;5.80;;
33836;SDS011;20140;49.356;8.812;2023-06-10T08:02:31;6.13;;;5.32;;
33836;SDS011;20140;49.356;8.812;2023-06-10T08:04:56;6.47;;;5.88;;
33836;SDS011;20140;49.356;8.812;2023-06-10T08:07:22;6.40;;;5.70;;
33836;SDS011;20140;49.356;8.812;2023-06-10T08:09:47;5.93;;;5.43;;
33836;SDS011;20140;49.356;8.812;2023-06-10T08:12:13;6.10;;;5.50;;
33836;SDS011;20140;49.356;8.812;2023-06-10T08:14:39;5.70;;;5.20;;
33836;SDS011;20140;49.356;8.812;2023-06-10T08:17:04;5.68;;;5.07;;
33836;SDS011;20140;49.356;8.812;2023-06-10T08:19:31;5.90;;;5.22;;
33836;SDS011;20140;49.356;8.812;2023-06-10T08:21:57;6.15;;;5.55;;
33836;SDS011;20140;49.356;8.812;2023-06-10T08:24:22;7.90;;;6.03;;
33836;SDS011;20140;49.356;8.812;2023-06-10T08:26:48;6.53;;;5.93;;
33836;SDS011;20140;49.356;8.812;2023-06-10T08:29:13;6.37;;;5.87;;
33836;SDS011;20140;49.356;8.812;2023-06-10T08:31:42;6.53;;;6.00;;
33836;SDS011;20140;49.356;8.812;2023-06-10T08:34:08;6.82;;;6.13;;
33836;SDS011;20140;49.356;8.812;2023-06-10T08:36:34;7.00;;;6.40;;
33836;SDS011;20140;49.356;8.812;2023-06-10T08:39:00;7.75;;;5.53;;
33836;SDS011;20140;49.356;8.812;2023-06-10T08:41:26;6.15;;;5.57;;
33836;SDS011;20140;49.356;8.812;2023-06-10T08:44:03;6.63;;;5.93;;
33836;SDS011;20140;49.356;8.812;2023-06-10T08:46:37;6.20;;;5.68;;
33836;SDS011;20140;49.356;8.812;2023-06-10T08:49:05;6.55;;;5.95;;
33836;SDS011;20140;49.356;8.812;2023-06-10T08:51:32;7.60;;;6.80;;
33836;SDS011;20140;49.356;8.812;2023-06-10T08:54:01;6.47;;;5.88;;
33836;SDS011;20140;49.356;8.812;2023-06-10T08:56:30;7.30;;;6.63;;
33836;SDS011;20140;49.356;8.812;2023-06-10T08:59:00;7.05;;;6.45;;
33836;SDS011;20140;49.356;8.812;2023-06-10T09:01:26;6.60;;;6.00;;
33836;SDS011;20140;49.356;8.812;2023-06-10T09:03:53;7.75;;;7.05;;
33836;SDS011;20140;49.356;8.812;2023-06-10T09:06:19;7.47;;;6.70;;
33836;SDS011;20140;49.356;8.812;2023-06-10T09:08:45;7.60;;;6.90;;
33836;SDS011;20140;49.356;8.812;2023-06-10T09:11:11;7.20;;;6.47;;
33836;SDS011;20140;49.356;8.812;2023-06-10T09:13:37;7.78;;;7.00;;
33836;SDS011;20140;49.356;8.812;2023-06-10T09:16:02;7.60;;;6.97;;
33836;SDS011;20140;49.356;8.812;2023-06-10T09:18:28;7.38;;;6.68;;
33836;SDS011;20140;49.356;8.812;2023-06-10T09:20:54;7.97;;;6.85;;
33836;SDS011;20140;49.356;8.812;2023-06-10T09:23:20;7.40;;;6.80;;
33836;SDS011;20140;49.356;8.812;2023-06-10T09:25:48;8.05;;;7.25;;
33836;SDS011;20140;49.356;8.812;2023-06-10T09:28:22;7.75;;;7.05;;
33836;SDS011;20140;49.356;8.812;2023-06-10T09:30:48;8.07;;;7.37;;
33836;SDS011;20140;49.356;8.812;2023-06-10T09:33:14;8.18;;;7.32;;
33836;SDS011;20140;49.356;8.812;2023-06-10T09:35:47;7.90;;;7.30;;
33836;SDS011;20140;49.356;8.812;2023-06-10T09:38:15;9.50;;;8.60;;
33836;SDS011;20140;49.356;8.812;2023-06-10T09:40:51;8.55;;;7.72;;
33836;SDS011;20140;49.356;8.812;2023-06-10T09:43:18;8.43;;;7.13;;
33836;SDS011;20140;49.356;8.812;2023-06-10T09:45:44;7.97;;;7.22;;
33836;SDS011;20140;49.356;8.812;2023-06-10T09:48:13;7.57;;;6.95;;
33836;SDS011;20140;49.356;8.812;2023-06-10T09:50:42;8.90;;;7.33;;
33836;SDS011;20140;49.356;8.812;2023-06-10T09:53:09;7.88;;;7.07;;
33836;SDS011;20140;49.356;8.812;2023-06-10T09:55:38;8.07;;;7.40;;
33836;SDS011;20140;49.356;8.812;2023-06-10T09:58:05;8.13;;;7.43;;
33836;SDS011;20140;49.356;8.812;2023-06-10T10:00:34;8.07;;;7.27;;
33836;SDS011;20140;49.356;8.812;2023-06-10T10:02:59;8.13;;;7.43;;
33836;SDS011;20140;49.356;8.812;2023-06-10T10:05:26;7.85;;;7.15;;
33836;SDS011;20140;49.356;8.812;2023-06-10T10:07:52;7.93;;;7.13;;
33836;SDS011;20140;49.356;8.812;2023-06-10T10:10:18;7.87;;;7.17;;
33836;SDS011;20140;49.356;8.812;2023-06-10T10:12:48;7.80;;;7.13;;
33836;SDS011;20140;49.356;8.812;2023-06-10T10:15:16;7.50;;;6.80;;
33836;SDS011;20140;49.356;8.812;2023-06-10T10:17:44;8.73;;;7.10;;
33836;SDS011;20140;49.356;8.812;2023-06-10T10:20:14;7.35;;;6.75;;
33836;SDS011;20140;49.356;8.812;2023-06-10T10:22:43;7.37;;;6.67;;
33836;SDS011;20140;49.356;8.812;2023-06-10T10:25:11;7.90;;;7.13;;
33836;SDS011;20140;49.356;8.812;2023-06-10T10:27:51;8.07;;;7.20;;
33836;SDS011;20140;49.356;8.812;2023-06-10T10:30:20;7.40;;;6.80;;
33836;SDS011;20140;49.356;8.812;2023-06-10T10:35:23;7.57;;;6.75;;
33836;SDS011;20140;49.356;8.812;2023-06-10T10:37:53;7.30;;;6.70;;
33836;SDS011;20140;49.356;8.812;2023-06-10T10:40:20;7.73;;;7.03;;
33836;SDS011;20140;49.356;8.812;2023-06-10T10:42:47;8.20;;;7.40;;
33836;SDS011;20140;49.356;8.812;2023-06-10T10:45:14;7.50;;;6.80;;
33836;SDS011;20140;49.356;8.812;2023-06-10T10:47:40;7.15;;;6.63;;
33836;SDS011;20140;49.356;8.812;2023-06-10T10:50:17;7.55;;;6.95;;
33836;SDS011;20140;49.356;8.812;2023-06-10T10:53:02;7.80;;;7.10;;
33836;SDS011;20140;49.356;8.812;2023-06-10T10:55:29;7.97;;;7.28;;
33836;SDS011;20140;49.356;8.812;2023-06-10T11:00:31;7.50;;;6.85;;
33836;SDS011;20140;49.356;8.812;2023-06-10T11:03:05;7.32;;;6.72;;
33836;SDS011;20140;49.356;8.812;2023-06-10T11:05:41;7.85;;;7.18;;
33836;SDS011;20140;49.356;8.812;2023-06-10T11:08:13;7.20;;;6.50;;
33836;SDS011;20140;49.356;8.812;2023-06-10T11:10:57;6.73;;;6.13;;
33836;SDS011;20140;49.356;8.812;2023-06-10T11:13:23;7.00;;;6.40;;
33836;SDS011;20140;49.356;8.812;2023-06-10T11:15:51;6.35;;;5.85;;
33836;SDS011;20140;49.356;8.812;2023-06-10T11:18:34;5.88;;;5.38;;
33836;SDS011;20140;49.356;8.812;2023-06-10T11:21:04;5.90;;;5.40;;
33836;SDS011;20140;49.356;8.812;2023-06-10T11:26:10;6.10;;;5.60;;
33836;SDS011;20140;49.356;8.812;2023-06-10T11:28:39;6.03;;;5.53;;
33836;SDS011;20140;49.356;8.812;2023-06-10T11:31:05;6.20;;;5.40;;
33836;SDS011;20140;49.356;8.812;2023-06-10T11:33:31;6.05;;;5.45;;
33836;SDS011;20140;49.356;8.812;2023-06-10T11:35:57;5.65;;;4.75;;
33836;SDS011;20140;49.356;8.812;2023-06-10T11:38:25;5.70;;;5.20;;
33836;SDS011;20140;49.356;8.812;2023-06-10T11:40:51;7.75;;;5.10;;
33836;SDS011;20140;49.356;8.812;2023-06-10T11:43:17;5.55;;;4.97;;
33836;SDS011;20140;49.356;8.812;2023-06-10T11:45:43;6.33;;;5.00;;
33836;SDS011;20140;49.356;8.812;2023-06-10T11:48:09;6.22;;;5.00;;
33836;SDS011;20140;49.356;8.812;2023-06-10T11:50:35;5.40;;;4.90;;
33836;SDS011;20140;49.356;8.812;2023-06-10T11:53:01;6.05;;;4.30;;
33836;SDS011;20140;49.356;8.812;2023-06-10T11:58:13;5.25;;;4.50;;
33836;SDS011;20140;49.356;8.812;2023-06-10T12:00:46;5.87;;;4.60;;
33836;SDS011;20140;49.356;8.812;2023-06-10T12:03:15;4.95;;;4.60;;
33836;SDS011;20140;49.356;8.812;2023-06-10T12:05:55;6.05;;;5.18;;
33836;SDS011;20140;49.356;8.812;2023-06-10T12:08:20;7.63;;;5.57;;
33836;SDS011;20140;49.356;8.812;2023-06-10T12:10:46;5.50;;;5.00;;
33836;SDS011;20140;49.356;8.812;2023-06-10T12:13:12;5.05;;;4.65;;
33836;SDS011;20140;49.356;8.812;2023-06-10T12:15:37;5.50;;;4.80;;
33836;SDS011;20140;49.356;8.812;2023-06-10T12:18:03;5.10;;;4.70;;
33836;SDS011;20140;49.356;8.812;2023-06-10T12:20:29;5.57;;;5.07;;
33836;SDS011;20140;49.356;8.812;2023-06-10T12:23:00;4.85;;;4.45;;
33836;SDS011;20140;49.356;8.812;2023-06-10T12:25:33;5.25;;;4.85;;
33836;SDS011;20140;49.356;8.812;2023-06-10T12:27:59;6.03;;;5.50;;
33836;SDS011;20140;49.356;8.812;2023-06-10T12:30:25;7.83;;;5.33;;
33836;SDS011;20140;49.356;8.812;2023-06-10T12:32:52;5.80;;;4.90;;
33836;SDS011;20140;49.356;8.812;2023-06-10T12:35:19;6.28;;;5.72;;
33836;SDS011;20140;49.356;8.812;2023-06-10T12:40:31;5.07;;;4.68;;
33836;SDS011;20140;49.356;8.812;2023-06-10T12:43:01;5.38;;;4.88;;
33836;SDS011;20140;49.356;8.812;2023-06-10T12:45:28;5.30;;;4.80;;
33836;SDS011;20140;49.356;8.812;2023-06-10T12:48:08;5.60;;;5.15;;
33836;SDS011;20140;49.356;8.812;2023-06-10T12:50:35;5.55;;;5.05;;
33836;SDS011;20140;49.356;8.812;2023-06-10T12:53:04;5.60;;;5.00;;
33836;SDS011;20140;49.356;8.812;2023-06-10T12:55:30;5.00;;;4.50;;
33836;SDS011;20140;49.356;8.812;2023-06-10T12:57:57;4.65;;;4.25;;
33836;SDS011;20140;49.356;8.812;2023-06-10T13:00:23;5.03;;;4.60;;
33836;SDS011;20140;49.356;8.812;2023-06-10T13:02:51;4.43;;;4.13;;
33836;SDS011;20140;49.356;8.812;2023-06-10T13:05:18;7.75;;;4.57;;
33836;SDS011;20140;49.356;8.812;2023-06-10T13:07:45;4.60;;;4.20;;
33836;SDS011;20140;49.356;8.812;2023-06-10T13:10:11;4.78;;;4.20;;
33836;SDS011;20140;49.356;8.812;2023-06-10T13:12:41;5.10;;;4.60;;
33836;SDS011;20140;49.356;8.812;2023-06-10T13:15:10;4.78;;;4.43;;
33836;SDS011;20140;49.356;8.812;2023-06-10T13:17:36;4.15;;;3.85;;
33836;SDS011;20140;49.356;8.812;2023-06-10T13:20:02;5.07;;;4.43;;
33836;SDS011;20140;49.356;8.812;2023-06-10T13:22:30;4.70;;;4.28;;
33836;SDS011;20140;49.356;8.812;2023-06-10T13:24:57;4.70;;;4.40;;
33836;SDS011;20140;49.356;8.812;2023-06-10T13:27:27;4.93;;;4.53;;
33836;SDS011;20140;49.356;8.812;2023-06-10T13:29:53;4.27;;;3.93;;
33836;SDS011;20140;49.356;8.812;2023-06-10T13:32:19;4.20;;;3.90;;
33836;SDS011;20140;49.356;8.812;2023-06-10T13:34:44;4.45;;;4.05;;
33836;SDS011;20140;49.356;8.812;2023-06-10T13:37:10;4.53;;;4.13;;
33836;SDS011;20140;49.356;8.812;2023-06-10T13:39:37;5.55;;;4.05;;
33836;SDS011;20140;49.356;8.812;2023-06-10T13:42:03;7.47;;;4.87;;
33836;SDS011;20140;49.356;8.812;2023-06-10T13:44:29;4.80;;;4.40;;
33836;SDS011;20140;49.356;8.812;2023-06-10T13:46:58;4.68;;;4.18;;
33836;SDS011;20140;49.356;8.812;2023-06-10T13:49:24;4.63;;;4.32;;
33836;SDS011;20140;49.356;8.812;2023-06-10T13:51:51;4.87;;;4.47;;
33836;SDS011;20140;49.356;8.812;2023-06-10T13:54:16;5.10;;;4.35;;
33836;SDS011;20140;49.356;8.812;2023-06-10T13:56:42;4.63;;;4.33;;
33836;SDS011;20140;49.356;8.812;2023-06-10T13:59:07;4.53;;;4.17;;
33836;SDS011;20140;49.356;8.812;2023-06-10T14:01:33;6.47;;;5.03;;
33836;SDS011;20140;49.356;8.812;2023-06-10T14:03:59;6.00;;;4.57;;
33836;SDS011;20140;49.356;8.812;2023-06-10T14:06:25;5.30;;;4.90;;
33836;SDS011;20140;49.356;8.812;2023-06-10T14:08:51;5.43;;;4.97;;
33836;SDS011;20140;49.356;8.812;2023-06-10T14:11:16;6.03;;;5.53;;
33836;SDS011;20140;49.356;8.812;2023-06-10T14:13:42;5.60;;;5.20;;
33836;SDS011;20140;49.356;8.812;2023-06-10T14:16:07;5.70;;;5.30;;
33836;SDS011;20140;49.356;8.812;2023-06-10T14:18:33;5.75;;;5.25;;
33836;SDS011;20140;49.356;8.812;2023-06-10T14:20:58;5.90;;;5.40;;
33836;SDS011;20140;49.356;8.812;2023-06-10T14:23:24;6.18;;;5.57;;
33836;SDS011;20140;49.356;8.812;2023-06-10T14:25:50;6.33;;;5.10;;
33836;SDS011;20140;49.356;8.812;2023-06-10T14:28:16;5.80;;;5.40;;
33836;SDS011;20140;49.356;8.812;2023-06-10T14:30:41;5.68;;;5.18;;
33836;SDS011;20140;49.356;8.812;2023-06-10T14:33:07;6.07;;;5.53;;
33836;SDS011;20140;49.356;8.812;2023-06-10T14:35:32;5.70;;;5.30;;
33836;SDS011;20140;49.356;8.812;2023-06-10T14:37:58;5.90;;;5.27;;
33836;SDS011;20140;49.356;8.812;2023-06-10T14:40:23;5.60;;;5.03;;
33836;SDS011;20140;49.356;8.812;2023-06-10T14:42:50;5.60;;;5.15;;
33836;SDS011;20140;49.356;8.812;2023-06-10T14:45:16;5.47;;;5.07;;
33836;SDS011;20140;49.356;8.812;2023-06-10T14:47:41;5.93;;;5.53;;
33836;SDS011;20140;49.356;8.812;2023-06-10T14:50:07;5.77;;;5.37;;
33836;SDS011;20140;49.356;8.812;2023-06-10T14:52:33;5.65;;;5.25;;
33836;SDS011;20140;49.356;8.812;2023-06-10T14:54:58;5.93;;;5.40;;
33836;SDS011;20140;49.356;8.812;2023-06-10T14:57:24;5.90;;;5.40;;
33836;SDS011;20140;49.356;8.812;2023-06-10T14:59:49;5.87;;;5.10;;
33836;SDS011;20140;49.356;8.812;2023-06-10T15:02:15;5.87;;;5.27;;
33836;SDS011;20140;49.356;8.812;2023-06-10T15:04:40;5.47;;;5.00;;